createdAt,value
2018-01-27T00:01:20.060Z,99.90
2018-01-27T00:03:47.580Z,99.90
2018-01-27T00:06:15.167Z,99.90
2018-01-27T00:08:42.715Z,99.90
2018-01-27T00:11:10.643Z,99.90
2018-01-27T00:13:38.206Z,99.90
2018-01-27T00:16:05.800Z,99.90
2018-01-27T00:18:33.343Z,99.90
2018-01-27T00:21:01.624Z,99.90
2018-01-27T00:23:29.193Z,99.90
2018-01-27T00:25:56.746Z,99.90
2018-01-27T00:28:24.284Z,99.90
2018-01-27T00:30:51.784Z,99.90
2018-01-27T00:33:20.112Z,99.90
2018-01-27T00:35:47.620Z,99.90
2018-01-27T00:38:15.165Z,99.90
2018-01-27T00:40:42.686Z,99.90
2018-01-27T00:43:10.207Z,99.90
2018-01-27T00:45:37.718Z,99.90
2018-01-27T00:48:05.511Z,99.90
2018-01-27T00:50:33.020Z,99.90
2018-01-27T00:53:00.563Z,99.90
2018-01-27T00:55:28.074Z,99.90
2018-01-27T00:57:56.379Z,99.90
2018-01-27T01:00:24.652Z,99.90
2018-01-27T01:02:52.185Z,99.90
2018-01-27T01:05:19.694Z,99.90
2018-01-27T01:07:47.215Z,99.90
2018-01-27T01:10:15.500Z,99.90
2018-01-27T01:12:43.040Z,99.90
2018-01-27T01:15:10.558Z,99.90
2018-01-27T01:17:38.084Z,99.90
2018-01-27T01:20:06.356Z,99.90
2018-01-27T01:22:33.888Z,99.90
2018-01-27T01:25:01.388Z,99.90
2018-01-27T01:27:28.927Z,99.90
2018-01-27T01:29:56.433Z,99.90
2018-01-27T01:32:24.700Z,99.90
2018-01-27T01:34:52.229Z,99.90
2018-01-27T01:37:20.496Z,99.90
2018-01-27T01:39:48.030Z,99.90
2018-01-27T01:42:21.839Z,99.90
2018-01-27T01:44:49.373Z,99.90
2018-01-27T01:47:16.884Z,99.90
2018-01-27T01:49:44.413Z,99.90
2018-01-27T01:52:12.679Z,99.90
2018-01-27T01:54:40.604Z,99.90
2018-01-27T01:57:08.894Z,99.90
2018-01-27T01:59:37.196Z,99.90
2018-01-27T02:02:05.475Z,99.90
2018-01-27T02:04:33.001Z,99.90
2018-01-27T02:07:00.508Z,99.90
2018-01-27T02:09:28.036Z,99.90
2018-01-27T02:11:55.540Z,99.90
2018-01-27T02:14:23.072Z,99.90
2018-01-27T02:16:50.576Z,99.90
2018-01-27T02:19:18.103Z,99.90
2018-01-27T02:21:46.381Z,99.90
2018-01-27T02:24:13.963Z,99.90
2018-01-27T02:26:41.468Z,99.90
2018-01-27T02:29:08.994Z,99.90
2018-01-27T02:31:36.505Z,99.90
2018-01-27T02:34:04.033Z,99.90
2018-01-27T02:36:32.536Z,99.90
2018-01-27T02:39:00.837Z,99.90
2018-01-27T02:41:29.116Z,99.90
2018-01-27T02:43:56.629Z,99.90
2018-01-27T02:46:24.924Z,99.90
2018-01-27T02:48:53.205Z,99.90
2018-01-27T02:51:20.732Z,99.90
2018-01-27T02:53:48.240Z,99.90
2018-01-27T02:56:15.784Z,99.90
2018-01-27T02:58:44.064Z,99.90
2018-01-27T03:01:11.601Z,99.90
2018-01-27T03:03:39.120Z,99.90
2018-01-27T03:06:06.664Z,99.90
2018-01-27T03:08:34.169Z,99.90
2018-01-27T03:11:01.702Z,99.90
2018-01-27T03:13:29.221Z,99.90
2018-01-27T03:15:56.755Z,99.90
2018-01-27T03:18:24.260Z,99.90
2018-01-27T03:20:52.559Z,99.90
2018-01-27T03:23:20.832Z,99.90
2018-01-27T03:25:48.367Z,99.90
2018-01-27T03:28:16.456Z,99.90
2018-01-27T03:30:44.755Z,99.90
2018-01-27T03:33:13.075Z,99.90
2018-01-27T03:35:41.345Z,99.90
2018-01-27T03:38:08.856Z,99.90
2018-01-27T03:40:37.154Z,99.90
2018-01-27T03:43:04.664Z,99.90
2018-01-27T03:45:32.191Z,99.90
2018-01-27T03:47:59.700Z,99.90
2018-01-27T03:50:27.987Z,99.90
2018-01-27T03:52:55.492Z,99.90
2018-01-27T03:55:23.788Z,99.90
2018-01-27T03:57:51.299Z,99.90
2018-01-27T04:00:18.828Z,99.90
2018-01-27T04:02:46.338Z,99.90
2018-01-27T04:05:13.860Z,99.90
2018-01-27T04:07:41.376Z,99.90
2018-01-27T04:10:08.913Z,99.90
2018-01-27T04:12:36.420Z,99.90
2018-01-27T04:15:03.923Z,99.90
2018-01-27T04:17:31.447Z,99.90
2018-01-27T04:19:59.719Z,99.90
2018-01-27T04:22:27.249Z,99.90
2018-01-27T04:24:54.765Z,99.90
2018-01-27T04:27:22.298Z,99.90
2018-01-27T04:29:50.568Z,99.90
2018-01-27T04:32:18.101Z,99.90
2018-01-27T04:34:46.376Z,99.90
2018-01-27T04:37:13.904Z,99.90
2018-01-27T04:39:41.403Z,99.90
2018-01-27T04:42:08.938Z,99.90
2018-01-27T04:44:37.208Z,99.90
2018-01-27T04:47:04.732Z,99.90
2018-01-27T04:49:33.005Z,99.90
2018-01-27T04:52:00.537Z,99.90
2018-01-27T04:54:28.054Z,99.90
2018-01-27T04:56:55.581Z,99.90
2018-01-27T04:59:23.087Z,99.90
2018-01-27T05:01:51.381Z,99.90
2018-01-27T05:04:19.664Z,99.90
2018-01-27T05:06:47.187Z,99.90
2018-01-27T05:09:14.690Z,99.90
2018-01-27T05:11:42.219Z,99.90
2018-01-27T05:14:09.737Z,99.90
2018-01-27T05:16:37.265Z,99.90
2018-01-27T05:19:04.839Z,99.90
2018-01-27T05:21:32.383Z,99.90
2018-01-27T05:23:59.897Z,99.90
2018-01-27T05:26:27.405Z,99.90
2018-01-27T05:28:54.928Z,99.90
2018-01-27T05:31:23.207Z,99.90
2018-01-27T05:33:50.735Z,99.90
2018-01-27T05:36:18.245Z,99.90
2018-01-27T05:38:45.771Z,99.90
2018-01-27T05:41:14.040Z,99.90
2018-01-27T05:43:41.569Z,99.90
2018-01-27T05:46:09.844Z,99.90
2018-01-27T05:48:37.376Z,99.90
2018-01-27T05:51:04.883Z,99.90
2018-01-27T05:53:32.413Z,99.90
2018-01-27T05:56:00.687Z,99.90
2018-01-27T05:58:28.219Z,99.90
2018-01-27T06:00:55.735Z,99.90
2018-01-27T06:03:23.265Z,99.90
2018-01-27T06:05:51.541Z,99.90
2018-01-27T06:08:19.078Z,99.90
2018-01-27T06:10:46.585Z,99.90
2018-01-27T06:13:14.113Z,99.90
2018-01-27T06:15:41.616Z,99.90
2018-01-27T06:18:09.912Z,99.90
2018-01-27T06:20:38.188Z,99.90
2018-01-27T06:23:05.720Z,99.90
2018-01-27T06:25:33.229Z,99.90
2018-01-27T06:28:00.763Z,99.90
2018-01-27T06:30:29.044Z,99.90
2018-01-27T06:32:56.581Z,99.90
2018-01-27T06:35:24.089Z,99.90
2018-01-27T06:37:51.601Z,99.90
2018-01-27T06:40:19.135Z,99.90
2018-01-27T06:42:46.645Z,99.90
2018-01-27T06:45:14.172Z,99.90
2018-01-27T06:47:42.454Z,99.90
2018-01-27T06:50:09.990Z,99.90
2018-01-27T06:52:37.509Z,99.90
2018-01-27T06:55:05.035Z,99.90
2018-01-27T06:57:32.554Z,99.90
2018-01-27T07:00:00.083Z,99.90
2018-01-27T07:02:28.360Z,99.90
2018-01-27T07:04:55.889Z,99.90
2018-01-27T07:07:23.413Z,99.90
2018-01-27T07:09:50.935Z,99.90
2018-01-27T07:12:18.443Z,99.90
2018-01-27T07:14:45.975Z,99.90
2018-01-27T07:17:13.480Z,99.90
2018-01-27T07:19:41.010Z,99.90
2018-01-27T07:22:08.518Z,99.90
2018-01-27T07:24:36.058Z,99.90
2018-01-27T07:27:03.559Z,99.90
2018-01-27T07:29:31.094Z,99.90
2018-01-27T07:31:58.604Z,99.90
2018-01-27T07:34:26.132Z,99.90
2018-01-27T07:36:53.671Z,99.90
2018-01-27T07:39:21.955Z,99.90
2018-01-27T07:41:49.456Z,99.90
2018-01-27T07:44:17.738Z,99.90
2018-01-27T07:46:45.273Z,99.90
2018-01-27T07:49:12.781Z,99.90
2018-01-27T07:51:40.303Z,99.90
2018-01-27T07:54:08.580Z,99.90
2018-01-27T07:56:36.103Z,99.90
2018-01-27T07:59:04.387Z,99.90
2018-01-27T08:01:31.917Z,99.90
2018-01-27T08:03:59.428Z,99.90
2018-01-27T08:06:26.953Z,99.90
2018-01-27T08:08:55.234Z,99.90
2018-01-27T08:11:22.769Z,99.90
2018-01-27T08:13:50.286Z,99.90
2018-01-27T08:16:17.817Z,99.90
2018-01-27T08:18:46.093Z,99.90
2018-01-27T08:21:14.407Z,99.90
2018-01-27T08:23:42.675Z,99.90
2018-01-27T08:26:10.212Z,99.90
2018-01-27T08:28:37.726Z,99.90
2018-01-27T08:31:05.260Z,99.90
2018-01-27T08:33:33.532Z,99.50
2018-01-27T08:36:01.076Z,99.70
2018-01-27T08:38:28.575Z,99.20
2018-01-27T08:40:56.107Z,99.30
2018-01-27T08:43:24.384Z,99.00
2018-01-27T08:45:51.908Z,99.00
2018-01-27T08:48:20.181Z,98.40
2018-01-27T08:50:48.498Z,98.70
2018-01-27T08:53:16.100Z,98.70
2018-01-27T08:55:44.397Z,98.60
2018-01-27T08:58:12.668Z,98.40
2018-01-27T09:00:40.785Z,98.40
2018-01-27T09:03:09.075Z,98.10
2018-01-27T09:05:36.590Z,98.10
2018-01-27T09:08:04.122Z,98.50
2018-01-27T09:10:31.628Z,98.40
2018-01-27T09:12:59.948Z,98.00
2018-01-27T09:15:28.232Z,98.70
2018-01-27T09:17:55.762Z,98.50
2018-01-27T09:20:23.278Z,98.00
2018-01-27T09:22:50.861Z,98.20
2018-01-27T09:25:18.381Z,97.70
2018-01-27T09:27:45.912Z,97.30
2018-01-27T09:30:14.188Z,97.20
2018-01-27T09:32:41.736Z,97.20
2018-01-27T09:35:10.008Z,97.40
2018-01-27T09:37:37.537Z,97.40
2018-01-27T09:40:05.039Z,96.80
2018-01-27T09:42:32.624Z,96.70
2018-01-27T09:45:00.964Z,96.30
2018-01-27T09:47:28.491Z,96.50
2018-01-27T09:49:56.005Z,96.10
2018-01-27T09:52:24.318Z,95.60
2018-01-27T09:54:51.851Z,95.60
2018-01-27T09:57:19.760Z,94.80
2018-01-27T09:59:48.076Z,95.80
2018-01-27T10:02:16.393Z,95.60
2018-01-27T10:04:44.672Z,95.60
2018-01-27T10:07:12.228Z,95.60
2018-01-27T10:09:41.913Z,94.50
2018-01-27T10:12:10.385Z,94.10
2018-01-27T10:14:37.934Z,94.00
2018-01-27T10:17:05.468Z,94.70
2018-01-27T10:19:33.018Z,94.50
2018-01-27T10:22:00.541Z,94.80
2018-01-27T10:24:28.082Z,93.70
2018-01-27T10:26:55.598Z,94.10
2018-01-27T10:29:23.143Z,94.60
2018-01-27T10:31:50.667Z,94.60
2018-01-27T10:34:19.122Z,95.50
2018-01-27T10:36:47.409Z,95.50
2018-01-27T10:39:15.746Z,95.70
2018-01-27T10:41:43.266Z,95.40
2018-01-27T10:44:10.836Z,95.10
2018-01-27T10:46:38.352Z,95.50
2018-01-27T10:49:07.269Z,94.20
2018-01-27T10:51:34.787Z,94.10
2018-01-27T10:54:02.333Z,94.70
2018-01-27T10:56:29.873Z,94.70
2018-01-27T10:58:57.430Z,94.20
2018-01-27T11:01:25.713Z,93.20
2018-01-27T11:03:53.254Z,93.10
2018-01-27T11:06:20.784Z,93.40
2018-01-27T11:08:48.327Z,93.00
2018-01-27T11:11:15.856Z,93.90
